createdAt,value
2022-08-05T00:00:16.544Z,5.25
2022-08-05T00:02:51.057Z,4.25
2022-08-05T00:06:02.612Z,4.18
2022-08-05T00:08:34.245Z,4.13
2022-08-05T00:11:00.365Z,4.75
2022-08-05T00:13:38.202Z,4.90
2022-08-05T00:16:09.273Z,5.18
2022-08-05T00:18:39.431Z,6.00
2022-08-05T00:21:08.391Z,4.13
2022-08-05T00:23:46.934Z,4.78
2022-08-05T00:26:23.282Z,5.40
2022-08-05T00:28:52.245Z,5.28
2022-08-05T00:31:53.046Z,5.28
2022-08-05T00:34:54.152Z,5.28
2022-08-05T00:37:09.859Z,5.40
2022-08-05T00:39:44.220Z,5.88
2022-08-05T00:42:34.318Z,6.00
2022-08-05T00:45:02.888Z,6.65
2022-08-05T00:47:53.025Z,6.38
2022-08-05T00:50:20.920Z,6.18
2022-08-05T00:52:49.572Z,6.22
2022-08-05T00:55:21.996Z,6.63
2022-08-05T00:57:58.356Z,5.80
2022-08-05T01:00:28.199Z,6.45
2022-08-05T01:02:56.878Z,5.80
2022-08-05T01:05:27.469Z,6.13
2022-08-05T01:08:40.111Z,5.63
2022-08-05T01:10:52.241Z,5.80
2022-08-05T01:13:27.135Z,6.10
2022-08-05T01:16:23.031Z,5.13
2022-08-05T01:18:56.825Z,5.68
2022-08-05T01:21:38.292Z,5.55
2022-08-05T01:24:13.369Z,5.63
2022-08-05T01:26:49.886Z,5.78
2022-08-05T01:29:22.993Z,5.15
2022-08-05T01:31:52.916Z,6.00
2022-08-05T01:34:26.686Z,6.65
2022-08-05T01:37:00.520Z,6.65
2022-08-05T01:39:36.876Z,6.75
2022-08-05T01:42:16.696Z,6.95
2022-08-05T01:44:54.393Z,7.50
2022-08-05T01:47:24.258Z,6.90
2022-08-05T01:50:01.475Z,7.55
2022-08-05T01:52:31.629Z,6.68
2022-08-05T01:55:04.401Z,7.45
2022-08-05T01:58:12.249Z,6.18
2022-08-05T02:00:29.993Z,6.60
2022-08-05T02:03:03.648Z,6.15
2022-08-05T02:05:35.993Z,6.50
2022-08-05T02:08:05.646Z,6.80
2022-08-05T02:10:36.833Z,6.53
2022-08-05T02:13:13.044Z,6.88
2022-08-05T02:15:48.464Z,6.32
2022-08-05T02:18:32.319Z,6.78
2022-08-05T02:21:15.078Z,6.97
2022-08-05T02:23:46.015Z,6.45
2022-08-05T02:26:15.497Z,6.78
2022-08-05T02:28:46.382Z,7.18
2022-08-05T02:31:21.435Z,7.05
2022-08-05T02:33:57.204Z,6.20
2022-08-05T02:36:31.554Z,6.25
2022-08-05T02:39:02.014Z,6.45
2022-08-05T02:41:43.415Z,5.30
2022-08-05T02:44:19.708Z,6.10
2022-08-05T02:46:59.768Z,6.03
2022-08-05T02:49:35.810Z,6.63
2022-08-05T02:52:06.809Z,6.78
2022-08-05T02:54:37.443Z,6.60
2022-08-05T02:57:10.436Z,6.63
2022-08-05T02:59:56.227Z,6.93
2022-08-05T03:02:29.091Z,7.40
2022-08-05T03:04:59.283Z,7.93
2022-08-05T03:08:00.271Z,7.40
2022-08-05T03:10:22.067Z,7.22
2022-08-05T03:12:53.652Z,7.65
2022-08-05T03:15:23.621Z,7.75
2022-08-05T03:17:55.659Z,7.70
2022-08-05T03:20:25.028Z,7.32
2022-08-05T03:22:55.226Z,6.75
2022-08-05T03:25:34.054Z,7.30
2022-08-05T03:28:18.720Z,7.05
2022-08-05T03:30:49.182Z,6.53
2022-08-05T03:33:19.247Z,6.65
2022-08-05T03:35:48.297Z,6.43
2022-08-05T03:38:24.026Z,6.53
2022-08-05T03:41:08.329Z,6.82
2022-08-05T03:44:08.790Z,8.18
2022-08-05T03:46:29.786Z,7.20
2022-08-05T03:49:02.316Z,7.15
2022-08-05T03:52:48.514Z,7.28
2022-08-05T03:55:34.665Z,8.00
2022-08-05T03:57:16.102Z,8.13
2022-08-05T03:59:54.922Z,8.15
2022-08-05T04:02:37.934Z,9.25
2022-08-05T04:05:11.146Z,9.65
2022-08-05T04:07:57.544Z,9.50
2022-08-05T04:10:30.864Z,9.85
2022-08-05T04:13:03.380Z,9.13
2022-08-05T04:15:36.154Z,8.90
2022-08-05T04:18:06.688Z,9.40
2022-08-05T04:20:37.648Z,9.85
2022-08-05T04:23:12.610Z,10.52
2022-08-05T04:25:57.134Z,10.43
2022-08-05T04:28:31.769Z,10.70
2022-08-05T04:31:00.867Z,11.80
2022-08-05T04:33:54.561Z,12.35
2022-08-05T04:36:46.444Z,11.50
2022-08-05T04:39:08.587Z,11.52
2022-08-05T04:41:38.666Z,11.80
2022-08-05T04:44:08.966Z,12.50
2022-08-05T04:46:38.205Z,11.57
2022-08-05T04:49:12.266Z,12.77
2022-08-05T04:51:45.001Z,12.07
2022-08-05T04:54:14.821Z,12.18
2022-08-05T04:56:43.864Z,13.43
2022-08-05T04:59:22.193Z,11.65
2022-08-05T05:02:35.457Z,13.50
2022-08-05T05:04:50.522Z,11.52
2022-08-05T05:07:23.793Z,12.57
2022-08-05T05:09:57.735Z,12.52
2022-08-05T05:12:27.371Z,12.80
2022-08-05T05:14:56.296Z,12.60
2022-08-05T05:17:55.728Z,12.50
2022-08-05T05:20:13.884Z,12.82
2022-08-05T05:22:44.148Z,12.90
2022-08-05T05:25:16.909Z,12.25
2022-08-05T05:27:48.765Z,12.68
2022-08-05T05:30:31.073Z,13.23
2022-08-05T05:33:13.847Z,13.98
2022-08-05T05:35:47.488Z,13.02
2022-08-05T05:38:22.797Z,13.43
2022-08-05T05:40:56.009Z,13.77
2022-08-05T05:43:54.841Z,12.13
2022-08-05T05:46:17.648Z,12.77
2022-08-05T05:48:48.823Z,12.95
2022-08-05T05:51:21.433Z,12.07
2022-08-05T05:53:57.252Z,12.63
2022-08-05T05:56:32.845Z,12.68
2022-08-05T05:59:03.590Z,13.63
2022-08-05T06:01:37.761Z,13.90
2022-08-05T06:04:08.453Z,14.38
2022-08-05T06:06:41.661Z,14.60
2022-08-05T06:09:16.632Z,13.85
2022-08-05T06:11:59.389Z,14.93
2022-08-05T06:14:31.088Z,14.57
2022-08-05T06:16:59.649Z,14.32
2022-08-05T06:19:35.107Z,13.40
2022-08-05T06:22:04.160Z,11.90
2022-08-05T06:24:36.677Z,13.18
2022-08-05T06:27:06.218Z,13.75
2022-08-05T06:29:53.274Z,13.20
2022-08-05T06:32:32.536Z,11.50
2022-08-05T06:35:06.021Z,11.60
2022-08-05T06:37:57.915Z,10.27
2022-08-05T06:40:32.471Z,9.55
2022-08-05T06:43:01.409Z,9.73
2022-08-05T06:45:44.649Z,9.45
2022-08-05T06:48:50.240Z,8.75
2022-08-05T06:51:09.486Z,8.57
2022-08-05T06:53:39.188Z,7.68
2022-08-05T06:56:25.740Z,9.18
2022-08-05T06:58:54.641Z,8.57
2022-08-05T07:01:23.591Z,8.45
2022-08-05T07:03:56.213Z,8.20
2022-08-05T07:06:24.721Z,8.80
2022-08-05T07:08:56.215Z,8.38
2022-08-05T07:11:30.999Z,8.55
2022-08-05T07:14:28.929Z,8.82
2022-08-05T07:18:01.402Z,8.50
2022-08-05T07:20:31.005Z,9.77
2022-08-05T07:22:39.848Z,8.43
2022-08-05T07:25:54.308Z,7.55
2022-08-05T07:28:07.208Z,8.25
2022-08-05T07:30:38.559Z,7.50
2022-08-05T07:33:09.515Z,7.28
2022-08-05T07:36:03.520Z,7.20
2022-08-05T07:38:33.174Z,6.18
2022-08-05T07:42:09.547Z,6.45
2022-08-05T07:43:55.122Z,6.03
2022-08-05T07:46:26.005Z,6.47
2022-08-05T07:49:01.711Z,5.90
2022-08-05T07:51:40.663Z,6.07
2022-08-05T07:54:18.731Z,5.95
2022-08-05T07:57:14.828Z,5.90
2022-08-05T07:59:40.010Z,5.80
2022-08-05T08:02:15.968Z,5.68
2022-08-05T08:04:46.519Z,5.38
2022-08-05T08:07:15.451Z,5.47
2022-08-05T08:09:44.081Z,5.45
2022-08-05T08:12:36.960Z,5.30
2022-08-05T08:15:04.386Z,5.78
2022-08-05T08:17:33.338Z,5.50
2022-08-05T08:20:22.669Z,5.10
2022-08-05T08:22:55.639Z,4.88
2022-08-05T08:25:34.591Z,5.05
2022-08-05T08:28:18.819Z,5.57
2022-08-05T08:31:02.982Z,4.90
2022-08-05T08:33:36.068Z,4.72
2022-08-05T08:36:38.967Z,4.38
2022-08-05T08:38:57.001Z,5.25
2022-08-05T08:41:52.115Z,4.97
2022-08-05T08:45:23.703Z,5.00
2022-08-05T08:47:21.857Z,4.53
2022-08-05T08:50:13.080Z,4.93
2022-08-05T08:52:51.692Z,4.80
2022-08-05T08:56:01.630Z,5.50
2022-08-05T08:58:12.846Z,5.30
2022-08-05T09:00:42.873Z,5.75
2022-08-05T09:03:16.107Z,4.82
2022-08-05T09:06:08.949Z,5.07
2022-08-05T09:08:40.325Z,5.00
2022-08-05T09:11:13.660Z,4.63
2022-08-05T09:14:10.112Z,4.75
2022-08-05T09:16:33.568Z,4.30
2022-08-05T09:19:06.755Z,4.30
2022-08-05T09:22:22.258Z,4.32
2022-08-05T09:24:24.263Z,4.68
2022-08-05T09:26:54.023Z,4.35
2022-08-05T09:29:30.976Z,4.95
2022-08-05T09:32:45.931Z,4.60
2022-08-05T09:34:58.538Z,4.70
2022-08-05T09:38:16.440Z,4.50
2022-08-05T09:40:32.151Z,4.10
2022-08-05T09:43:01.778Z,5.32
2022-08-05T09:46:06.123Z,4.90
2022-08-05T09:48:27.204Z,4.95
2022-08-05T09:50:59.839Z,4.88
2022-08-05T09:53:53.886Z,4.85
2022-08-05T09:56:26.234Z,5.55
2022-08-05T09:58:58.459Z,4.97
2022-08-05T10:01:32.297Z,4.90
2022-08-05T10:04:04.581Z,4.82
2022-08-05T10:06:55.122Z,4.00
2022-08-05T10:09:29.851Z,3.97
2022-08-05T10:12:30.392Z,3.90
2022-08-05T10:15:16.955Z,3.63
2022-08-05T10:18:04.433Z,3.88
2022-08-05T10:20:34.542Z,3.90
2022-08-05T10:23:04.348Z,3.72
2022-08-05T10:25:37.462Z,3.95
2022-08-05T10:28:13.214Z,3.65
2022-08-05T10:32:48.002Z,3.13
2022-08-05T10:33:36.197Z,3.17
2022-08-05T10:36:05.590Z,2.50
2022-08-05T10:38:36.945Z,2.97
2022-08-05T10:41:09.735Z,2.33
2022-08-05T10:43:45.528Z,2.60
2022-08-05T10:46:14.963Z,2.83
2022-08-05T10:48:57.085Z,2.78
2022-08-05T10:51:28.576Z,2.97
2022-08-05T10:54:01.973Z,2.80
2022-08-05T10:56:45.492Z,2.50
2022-08-05T11:00:03.195Z,2.90
2022-08-05T11:02:14.071Z,2.25
2022-08-05T11:04:46.711Z,2.83
2022-08-05T11:07:18.432Z,2.60
2022-08-05T11:10:10.253Z,2.63
2022-08-05T11:12:54.244Z,2.72
2022-08-05T11:16:00.803Z,2.60
2022-08-05T11:18:25.545Z,3.30
2022-08-05T11:20:54.528Z,3.00
2022-08-05T11:23:33.198Z,3.03
2022-08-05T11:26:08.737Z,3.05
2022-08-05T11:28:43.121Z,2.95
2022-08-05T11:31:58.825Z,2.85
2022-08-05T11:34:37.731Z,3.92
2022-08-05T11:38:28.067Z,3.67
2022-08-05T11:39:55.611Z,3.38
2022-08-05T11:42:37.991Z,3.25
2022-08-05T11:45:23.338Z,2.83
2022-08-05T11:47:59.942Z,3.03
2022-08-05T11:50:29.394Z,3.20
2022-08-05T11:52:58.409Z,3.88
2022-08-05T11:55:31.992Z,4.15
2022-08-05T11:58:09.680Z,4.00
2022-08-05T12:00:44.455Z,3.33
2022-08-05T12:03:23.731Z,3.90
2022-08-05T12:06:00.499Z,3.72
2022-08-05T12:08:31.515Z,4.38
2022-08-05T12:11:05.530Z,4.40
2022-08-05T12:13:49.522Z,4.15
2022-08-05T12:16:20.230Z,4.45
2022-08-05T12:18:54.807Z,4.40
2022-08-05T12:21:24.626Z,5.65
2022-08-05T12:24:04.890Z,4.47
2022-08-05T12:26:36.425Z,4.50
2022-08-05T12:29:09.454Z,3.85
2022-08-05T12:31:45.891Z,5.00
2022-08-05T12:34:21.710Z,3.88
2022-08-05T12:36:53.377Z,4.20
2022-08-05T12:39:22.157Z,3.58
2022-08-05T12:41:58.048Z,3.78
2022-08-05T12:44:33.658Z,4.03
2022-08-05T12:47:02.753Z,4.20
2022-08-05T12:50:04.430Z,3.97
2022-08-05T12:52:35.310Z,3.47
2022-08-05T12:55:18.053Z,3.88
2022-08-05T12:58:50.460Z,3.95
2022-08-05T13:02:02.842Z,3.90
2022-08-05T13:03:33.267Z,3.60
2022-08-05T13:06:01.945Z,3.63
2022-08-05T13:08:32.300Z,3.17
2022-08-05T13:11:01.982Z,2.63
2022-08-05T13:14:07.347Z,2.42
2022-08-05T13:16:25.133Z,2.50
2022-08-05T13:18:57.946Z,3.00
2022-08-05T13:21:28.389Z,2.65
2022-08-05T13:24:08.856Z,2.83
2022-08-05T13:26:37.560Z,2.72
2022-08-05T13:29:06.432Z,2.53
2022-08-05T13:32:04.441Z,2.53
2022-08-05T13:34:26.250Z,2.40
2022-08-05T13:36:55.060Z,2.30
2022-08-05T13:40:14.394Z,2.10
2022-08-05T13:42:13.937Z,2.00
2022-08-05T13:44:45.758Z,2.20
2022-08-05T13:47:36.112Z,1.92
2022-08-05T13:50:08.974Z,2.03
2022-08-05T13:52:39.860Z,2.10
2022-08-05T13:55:10.108Z,2.00
2022-08-05T13:57:50.592Z,2.20
2022-08-05T14:00:26.762Z,2.10
2022-08-05T14:02:58.021Z,1.90
2022-08-05T14:06:24.780Z,1.80
2022-08-05T14:08:20.708Z,1.60
2022-08-05T14:11:03.145Z,1.63
2022-08-05T14:13:44.197Z,1.40
2022-08-05T14:16:17.267Z,1.65
2022-08-05T14:18:49.158Z,2.00
2022-08-05T14:22:09.042Z,2.10
2022-08-05T14:24:08.980Z,2.17
2022-08-05T14:26:47.174Z,1.63
2022-08-05T14:29:26.658Z,1.80
2022-08-05T14:32:13.017Z,1.58
2022-08-05T14:34:44.900Z,1.55
2022-08-05T14:37:14.538Z,1.40
2022-08-05T14:39:49.462Z,1.70
2022-08-05T14:42:29.283Z,1.30
2022-08-05T14:44:57.947Z,1.38
2022-08-05T14:48:05.225Z,1.35
2022-08-05T14:50:19.254Z,1.45
2022-08-05T14:52:53.561Z,1.33
2022-08-05T14:55:38.546Z,1.30
2022-08-05T14:58:11.147Z,1.02
2022-08-05T15:00:59.172Z,1.15
2022-08-05T15:03:33.623Z,1.30
2022-08-05T15:06:08.354Z,1.70
2022-08-05T15:09:01.161Z,1.40
2022-08-05T15:11:52.348Z,1.17
2022-08-05T15:14:35.551Z,1.40
2022-08-05T15:17:18.990Z,1.50
2022-08-05T15:19:58.631Z,1.13
2022-08-05T15:22:28.840Z,1.10
2022-08-05T15:25:00.661Z,1.40
2022-08-05T15:27:43.050Z,1.38
2022-08-05T15:30:22.494Z,1.20
2022-08-05T15:32:50.923Z,1.33
2022-08-05T15:35:21.983Z,1.38
2022-08-05T15:38:32.760Z,1.23
2022-08-05T15:41:20.255Z,1.13
2022-08-05T15:43:31.540Z,1.10
2022-08-05T15:46:14.585Z,1.38
2022-08-05T15:48:52.730Z,1.30
2022-08-05T15:52:04.262Z,1.27
2022-08-05T15:54:17.371Z,1.08
2022-08-05T15:56:45.772Z,1.15
2022-08-05T15:59:22.007Z,1.33
2022-08-05T16:01:52.995Z,1.25
2022-08-05T16:04:25.444Z,1.65
2022-08-05T16:06:55.708Z,1.30
2022-08-05T16:09:25.987Z,1.00
2022-08-05T16:11:54.686Z,1.30
2022-08-05T16:14:23.343Z,1.10
2022-08-05T16:16:52.301Z,1.20
2022-08-05T16:20:02.919Z,1.38
2022-08-05T16:22:10.458Z,1.17
2022-08-05T16:24:51.122Z,1.13
2022-08-05T16:27:32.038Z,1.35
2022-08-05T16:30:25.514Z,1.30
2022-08-05T16:32:55.146Z,1.20
2022-08-05T16:35:28.426Z,1.38
2022-08-05T16:38:02.845Z,1.40
2022-08-05T16:40:48.086Z,1.30
2022-08-05T16:43:24.465Z,1.27
2022-08-05T16:46:04.521Z,1.30
2022-08-05T16:48:38.455Z,1.33
2022-08-05T16:51:09.803Z,1.40
2022-08-05T16:54:06.073Z,1.50
2022-08-05T16:56:29.229Z,1.40
2022-08-05T16:58:58.386Z,1.20
2022-08-05T17:01:27.413Z,1.20
2022-08-05T17:04:15.700Z,1.10
2022-08-05T17:06:53.403Z,1.23
2022-08-05T17:09:22.985Z,1.20
2022-08-05T17:11:59.640Z,1.10
2022-08-05T17:14:37.712Z,1.10
2022-08-05T17:17:14.538Z,1.30
2022-08-05T17:19:46.100Z,1.70
2022-08-05T17:22:25.153Z,1.23
2022-08-05T17:24:57.795Z,1.27
2022-08-05T17:27:34.593Z,1.30
2022-08-05T17:30:12.209Z,1.20
2022-08-05T17:32:47.240Z,0.88
2022-08-05T17:35:20.901Z,1.00
2022-08-05T17:37:49.565Z,1.15
2022-08-05T17:40:22.584Z,1.00
2022-08-05T17:42:53.072Z,1.10
2022-08-05T17:45:23.066Z,1.30
2022-08-05T17:47:54.912Z,1.30
2022-08-05T17:50:29.682Z,1.15
2022-08-05T17:53:00.064Z,1.15
2022-08-05T17:55:37.110Z,1.40
2022-08-05T17:58:12.222Z,1.13
2022-08-05T18:00:45.203Z,1.45
2022-08-05T18:03:39.376Z,1.10
2022-08-05T18:06:11.246Z,1.40
2022-08-05T18:08:44.447Z,1.40
2022-08-05T18:11:23.329Z,1.20
2022-08-05T18:13:54.679Z,1.02
2022-08-05T18:16:23.863Z,1.30
2022-08-05T18:18:52.244Z,1.30
2022-08-05T18:21:25.840Z,1.38
2022-08-05T18:23:55.044Z,1.40
2022-08-05T18:26:29.066Z,1.30
2022-08-05T18:29:01.694Z,1.60
2022-08-05T18:31:33.136Z,1.30
2022-08-05T18:34:06.210Z,1.38
2022-08-05T18:36:36.337Z,1.23
2022-08-05T18:39:09.764Z,1.63
2022-08-05T18:42:03.634Z,1.30
2022-08-05T18:44:49.182Z,1.30
2022-08-05T18:47:26.753Z,1.70
2022-08-05T18:50:13.157Z,1.67
2022-08-05T18:52:50.948Z,1.40
2022-08-05T18:55:21.592Z,1.50
2022-08-05T18:57:53.925Z,1.45
2022-08-05T19:00:27.247Z,1.80
2022-08-05T19:03:03.208Z,1.35
2022-08-05T19:06:12.091Z,1.58
2022-08-05T19:08:21.678Z,1.60
2022-08-05T19:10:50.490Z,1.80
2022-08-05T19:13:19.843Z,1.75
2022-08-05T19:15:59.878Z,1.65
2022-08-05T19:18:31.739Z,1.60
2022-08-05T19:21:00.548Z,1.73
2022-08-05T19:24:07.299Z,1.60
2022-08-05T19:26:22.005Z,1.63
2022-08-05T19:28:50.375Z,1.80
2022-08-05T19:31:21.533Z,1.55
2022-08-05T19:33:56.672Z,1.50
2022-08-05T19:36:25.933Z,1.35
2022-08-05T19:39:00.684Z,1.40
2022-08-05T19:42:05.662Z,1.45
2022-08-05T19:44:19.251Z,1.40
2022-08-05T19:46:50.141Z,1.75
2022-08-05T19:49:18.925Z,1.20
2022-08-05T19:52:09.326Z,1.23
2022-08-05T19:54:36.908Z,1.20
2022-08-05T19:57:09.322Z,1.63
2022-08-05T19:59:55.306Z,1.30
2022-08-05T20:02:31.284Z,1.15
2022-08-05T20:05:00.318Z,1.30
2022-08-05T20:07:47.049Z,1.50
2022-08-05T20:10:19.412Z,1.55
2022-08-05T20:12:51.225Z,1.45
2022-08-05T20:15:48.043Z,1.77
2022-08-05T20:18:33.332Z,1.40
2022-08-05T20:20:59.926Z,1.60
2022-08-05T20:23:42.285Z,1.33
2022-08-05T20:26:17.973Z,1.13
2022-08-05T20:28:48.561Z,2.00
2022-08-05T20:31:17.391Z,1.50
2022-08-05T20:33:51.993Z,1.80
2022-08-05T20:36:21.190Z,1.52
2022-08-05T20:38:53.695Z,1.45
2022-08-05T20:41:27.399Z,1.52
2022-08-05T20:44:18.884Z,1.40
2022-08-05T20:46:59.082Z,1.63
2022-08-05T20:49:29.684Z,1.50
2022-08-05T20:52:01.846Z,1.83
2022-08-05T20:54:43.025Z,1.40
2022-08-05T20:57:42.372Z,1.70
2022-08-05T21:00:20.033Z,2.05
2022-08-05T21:03:01.259Z,1.90
2022-08-05T21:05:48.083Z,1.45
2022-08-05T21:08:21.357Z,1.40
2022-08-05T21:11:10.029Z,1.65
2022-08-05T21:13:48.108Z,1.65
2022-08-05T21:16:29.055Z,1.67
2022-08-05T21:19:00.365Z,1.50
2022-08-05T21:21:39.119Z,1.60
2022-08-05T21:24:13.507Z,1.55
2022-08-05T21:26:53.761Z,1.52
2022-08-05T21:29:31.695Z,1.73
2022-08-05T21:32:01.108Z,1.30
2022-08-05T21:34:31.678Z,1.70
2022-08-05T21:37:02.773Z,1.90
2022-08-05T21:39:31.210Z,1.33
2022-08-05T21:42:03.815Z,1.42
2022-08-05T21:44:33.045Z,1.60
2022-08-05T21:47:01.696Z,1.80
2022-08-05T21:49:58.796Z,1.55
2022-08-05T21:52:27.022Z,1.65
2022-08-05T21:54:56.815Z,1.55
2022-08-05T21:57:32.894Z,1.63
2022-08-05T22:00:05.277Z,1.67
2022-08-05T22:02:35.727Z,1.50
2022-08-05T22:05:05.463Z,2.00
2022-08-05T22:07:54.167Z,2.17
2022-08-05T22:10:25.569Z,1.80
2022-08-05T22:12:57.268Z,1.60
2022-08-05T22:16:02.532Z,1.80
2022-08-05T22:18:15.562Z,1.50
2022-08-05T22:20:48.041Z,1.45
2022-08-05T22:24:01.854Z,1.70
2022-08-05T22:26:49.426Z,1.90
2022-08-05T22:29:18.981Z,1.77
2022-08-05T22:31:59.760Z,2.10
2022-08-05T22:34:31.428Z,1.80
2022-08-05T22:37:00.360Z,1.75
2022-08-05T22:39:33.746Z,1.58
2022-08-05T22:42:11.633Z,1.60
2022-08-05T22:44:47.076Z,1.50
2022-08-05T22:47:29.285Z,1.80
2022-08-05T22:50:21.600Z,1.38
2022-08-05T22:52:48.566Z,1.75
2022-08-05T22:55:21.314Z,1.67
2022-08-05T22:57:50.292Z,1.58
2022-08-05T23:00:20.866Z,2.28
2022-08-05T23:02:50.247Z,2.28
2022-08-05T23:05:19.089Z,1.42
2022-08-05T23:07:50.851Z,1.58
2022-08-05T23:10:23.525Z,1.80
2022-08-05T23:12:54.736Z,1.80
2022-08-05T23:15:28.944Z,1.60
2022-08-05T23:18:00.761Z,1.50
2022-08-05T23:20:31.100Z,1.63
2022-08-05T23:22:59.532Z,1.70
2022-08-05T23:25:50.962Z,1.75
2022-08-05T23:28:18.086Z,1.45
2022-08-05T23:30:53.694Z,1.65
2022-08-05T23:33:26.181Z,1.70
2022-08-05T23:36:13.581Z,1.98
2022-08-05T23:38:42.648Z,1.92
2022-08-05T23:41:14.342Z,1.70
2022-08-05T23:44:04.917Z,1.90
2022-08-05T23:46:31.207Z,1.63
2022-08-05T23:49:02.171Z,1.67
2022-08-05T23:52:01.824Z,2.00
2022-08-05T23:54:38.348Z,1.67
2022-08-05T23:57:09.980Z,1.77
